createdAt,value
2022-12-19T00:01:36.061Z,65.73
2022-12-19T00:04:08.341Z,65.82
2022-12-19T00:06:36.832Z,65.82
2022-12-19T00:09:03.595Z,65.75
2022-12-19T00:11:30.625Z,65.42
2022-12-19T00:13:58.107Z,65.85
2022-12-19T00:16:27.152Z,65.64
2022-12-19T00:18:55.777Z,65.77
2022-12-19T00:21:25.863Z,65.72
2022-12-19T00:23:53.075Z,66.64
2022-12-19T00:26:25.836Z,66.52
2022-12-19T00:28:58.313Z,66.92
2022-12-19T00:31:26.730Z,67.69
2022-12-19T00:33:53.593Z,68.11
2022-12-19T00:36:31.730Z,68.57
2022-12-19T00:39:00.120Z,68.60
2022-12-19T00:41:31.372Z,69.01
2022-12-19T00:43:59.475Z,68.79
2022-12-19T00:46:27.660Z,68.85
2022-12-19T00:48:54.828Z,68.63
2022-12-19T00:51:24.324Z,68.40
2022-12-19T00:53:52.036Z,68.68
2022-12-19T00:56:25.727Z,68.72
2022-12-19T00:58:53.402Z,68.55
2022-12-19T01:01:41.168Z,68.76
2022-12-19T01:04:29.781Z,68.60
2022-12-19T01:07:01.655Z,68.58
2022-12-19T01:09:30.322Z,68.33
2022-12-19T01:12:15.988Z,68.95
2022-12-19T01:14:42.640Z,68.50
2022-12-19T01:17:09.360Z,68.54
2022-12-19T01:19:40.487Z,68.46
2022-12-19T01:22:10.128Z,69.17
2022-12-19T01:24:36.651Z,68.67
2022-12-19T01:27:03.297Z,69.20
2022-12-19T01:29:29.837Z,68.67
2022-12-19T01:31:57.965Z,68.89
2022-12-19T01:34:24.642Z,68.94
2022-12-19T01:36:51.238Z,69.25
2022-12-19T01:39:17.825Z,68.98
2022-12-19T01:41:44.408Z,68.88
2022-12-19T01:44:10.958Z,69.38
2022-12-19T01:46:47.714Z,68.48
2022-12-19T01:49:31.748Z,68.50
2022-12-19T01:52:02.265Z,69.00
2022-12-19T01:54:40.936Z,68.65
2022-12-19T01:57:13.867Z,68.56
2022-12-19T01:59:54.152Z,68.89
2022-12-19T02:02:29.716Z,68.99
2022-12-19T02:04:56.385Z,68.35
2022-12-19T02:07:25.393Z,68.42
2022-12-19T02:09:57.190Z,68.50
2022-12-19T02:12:25.776Z,68.02
2022-12-19T02:14:54.097Z,68.30
2022-12-19T02:17:34.737Z,68.13
2022-12-19T02:20:25.616Z,68.43
2022-12-19T02:23:00.629Z,68.36
2022-12-19T02:26:01.268Z,68.66
2022-12-19T02:29:01.937Z,68.94
2022-12-19T02:31:36.440Z,68.42
2022-12-19T02:34:24.842Z,69.08
2022-12-19T02:37:02.416Z,69.00
2022-12-19T02:39:41.439Z,68.81
2022-12-19T02:42:11.363Z,68.97
2022-12-19T02:44:51.988Z,68.38
2022-12-19T02:47:21.914Z,68.84
2022-12-19T02:49:49.168Z,68.95
2022-12-19T02:52:21.485Z,68.87
2022-12-19T02:54:50.746Z,68.43
2022-12-19T02:57:28.318Z,68.72
2022-12-19T03:00:07.738Z,68.70
2022-12-19T03:03:09.911Z,68.16
2022-12-19T03:05:52.918Z,68.67
2022-12-19T03:08:37.568Z,68.63
2022-12-19T03:11:11.768Z,68.45
2022-12-19T03:13:54.288Z,68.75
2022-12-19T03:16:21.158Z,69.04
2022-12-19T03:18:47.853Z,69.19
2022-12-19T03:21:23.689Z,69.34
2022-12-19T03:23:54.356Z,68.70
2022-12-19T03:26:28.065Z,68.46
2022-12-19T03:28:56.828Z,69.12
2022-12-19T03:31:29.152Z,68.79
2022-12-19T03:34:00.143Z,68.64
2022-12-19T03:36:42.737Z,68.75
2022-12-19T03:39:12.537Z,68.82
2022-12-19T03:42:01.080Z,68.97
2022-12-19T03:44:32.573Z,68.78
2022-12-19T03:47:08.409Z,68.95
2022-12-19T03:49:35.398Z,68.96
2022-12-19T03:52:17.074Z,69.35
2022-12-19T03:54:54.279Z,68.58
2022-12-19T03:57:43.180Z,68.66
2022-12-19T04:00:14.012Z,69.35
2022-12-19T04:02:44.869Z,69.43
2022-12-19T04:05:26.463Z,69.94
2022-12-19T04:07:57.835Z,69.41
2022-12-19T04:10:27.250Z,69.58
2022-12-19T04:13:12.100Z,69.90
2022-12-19T04:16:07.912Z,70.15
2022-12-19T04:18:35.067Z,70.01
2022-12-19T04:21:08.372Z,70.28
2022-12-19T04:23:41.449Z,70.14
2022-12-19T04:26:08.983Z,70.47
2022-12-19T04:28:45.494Z,70.74
2022-12-19T04:31:15.562Z,71.20
2022-12-19T04:33:42.667Z,70.45
2022-12-19T04:36:10.313Z,69.98
2022-12-19T04:38:37.044Z,70.85
2022-12-19T04:41:03.572Z,70.70
2022-12-19T04:43:30.169Z,70.25
2022-12-19T04:45:57.826Z,70.54
2022-12-19T04:48:25.056Z,70.04
2022-12-19T04:50:51.871Z,70.16
2022-12-19T04:53:18.481Z,70.55
2022-12-19T04:55:45.072Z,70.20
2022-12-19T04:58:11.855Z,69.87
2022-12-19T05:00:38.883Z,70.51
2022-12-19T05:03:05.597Z,70.46
2022-12-19T05:05:32.340Z,70.59
2022-12-19T05:07:58.904Z,71.87
2022-12-19T05:10:25.672Z,70.96
2022-12-19T05:12:54.664Z,70.73
2022-12-19T05:15:21.253Z,70.96
2022-12-19T05:17:47.769Z,70.22
2022-12-19T05:20:14.622Z,69.91
2022-12-19T05:22:41.176Z,69.91
2022-12-19T05:25:08.366Z,70.30
2022-12-19T05:27:35.046Z,69.76
2022-12-19T05:30:02.242Z,70.34
2022-12-19T05:32:32.831Z,70.04
2022-12-19T05:34:59.377Z,70.19
2022-12-19T05:37:26.207Z,70.41
2022-12-19T05:39:52.788Z,70.23
2022-12-19T05:42:19.461Z,69.98
2022-12-19T05:44:46.035Z,70.15
2022-12-19T05:47:12.571Z,70.29
2022-12-19T05:49:40.440Z,70.37
2022-12-19T05:52:07.011Z,70.49
2022-12-19T05:54:33.732Z,70.37
2022-12-19T05:57:00.279Z,70.06
2022-12-19T05:59:27.310Z,70.51
2022-12-19T06:01:54.389Z,70.27
2022-12-19T06:04:21.303Z,70.32
2022-12-19T06:06:47.865Z,70.15
2022-12-19T06:09:14.528Z,70.02
2022-12-19T06:11:41.126Z,70.35
2022-12-19T06:14:07.756Z,70.17
2022-12-19T06:16:34.386Z,70.24
2022-12-19T06:19:01.001Z,70.49
2022-12-19T06:21:28.126Z,69.73
2022-12-19T06:23:55.169Z,69.49
2022-12-19T06:26:22.842Z,69.83
2022-12-19T06:28:51.583Z,69.70
2022-12-19T06:31:20.324Z,69.93
2022-12-19T06:33:46.973Z,69.82
2022-12-19T06:36:20.284Z,69.70
2022-12-19T06:38:47.540Z,69.75
2022-12-19T06:41:33.902Z,70.03
2022-12-19T06:44:02.006Z,69.49
2022-12-19T06:46:28.880Z,69.46
2022-12-19T06:48:55.533Z,68.72
2022-12-19T06:51:22.241Z,69.16
2022-12-19T06:53:49.322Z,69.42
2022-12-19T06:56:17.287Z,69.05
2022-12-19T06:58:44.014Z,69.30
2022-12-19T07:01:45.846Z,68.69
2022-12-19T07:04:16.373Z,68.59
2022-12-19T07:06:48.698Z,69.00
2022-12-19T07:09:15.913Z,68.90
2022-12-19T07:11:42.514Z,69.16
2022-12-19T07:14:09.100Z,69.59
2022-12-19T07:16:37.624Z,69.66
2022-12-19T07:19:05.240Z,69.12
2022-12-19T07:21:31.997Z,69.08
2022-12-19T07:24:00.695Z,69.49
2022-12-19T07:26:27.711Z,69.89
2022-12-19T07:28:54.279Z,69.57
2022-12-19T07:31:21.196Z,69.46
2022-12-19T07:33:47.858Z,69.66
2022-12-19T07:36:14.758Z,69.76
2022-12-19T07:38:41.346Z,69.81
2022-12-19T07:41:07.945Z,69.92
2022-12-19T07:43:34.590Z,69.70
2022-12-19T07:46:01.341Z,69.71
2022-12-19T07:48:31.098Z,69.90
2022-12-19T07:50:57.693Z,69.69
2022-12-19T07:53:24.356Z,69.52
2022-12-19T07:55:52.037Z,70.41
2022-12-19T07:58:18.960Z,69.77
2022-12-19T08:00:45.668Z,69.90
2022-12-19T08:03:12.384Z,69.63
2022-12-19T08:05:39.045Z,70.11
2022-12-19T08:08:05.668Z,69.46
2022-12-19T08:10:32.367Z,69.79
2022-12-19T08:12:58.913Z,70.16
2022-12-19T08:15:25.508Z,69.89
2022-12-19T08:17:54.319Z,69.88
2022-12-19T08:20:21.524Z,69.65
2022-12-19T08:22:48.090Z,69.87
2022-12-19T08:25:14.809Z,69.75
2022-12-19T08:27:42.813Z,69.84
2022-12-19T08:30:10.025Z,69.84
2022-12-19T08:32:36.602Z,69.55
2022-12-19T08:35:03.367Z,69.57
2022-12-19T08:37:29.903Z,69.20
2022-12-19T08:39:56.474Z,69.68
2022-12-19T08:42:23.052Z,69.30
2022-12-19T08:44:49.610Z,68.83
2022-12-19T08:47:16.315Z,69.19
2022-12-19T08:49:42.885Z,68.99
2022-12-19T08:52:09.711Z,68.69
2022-12-19T08:54:36.435Z,68.88
2022-12-19T08:57:03.167Z,69.04
2022-12-19T08:59:31.136Z,68.05
2022-12-19T09:02:00.882Z,68.79
2022-12-19T09:05:28.118Z,68.49
2022-12-19T09:07:15.722Z,68.11
2022-12-19T09:09:42.865Z,68.38
2022-12-19T09:12:09.474Z,67.44
2022-12-19T09:14:36.832Z,67.75
2022-12-19T09:17:03.959Z,67.51
2022-12-19T09:19:31.804Z,68.48
2022-12-19T09:21:58.429Z,67.74
2022-12-19T09:24:24.973Z,67.92
2022-12-19T09:26:51.521Z,67.35
2022-12-19T09:29:20.517Z,67.46
2022-12-19T09:31:55.210Z,67.40
2022-12-19T09:34:38.116Z,66.76
2022-12-19T09:37:15.135Z,67.49
2022-12-19T09:39:45.309Z,66.85
2022-12-19T09:42:27.115Z,66.91
2022-12-19T09:45:08.428Z,66.78
2022-12-19T09:47:40.493Z,67.05
2022-12-19T09:50:29.687Z,66.77
2022-12-19T09:53:05.517Z,66.07
2022-12-19T09:55:36.247Z,66.13
2022-12-19T09:58:16.144Z,66.47
2022-12-19T10:00:45.338Z,66.27
2022-12-19T10:03:28.195Z,66.24
2022-12-19T10:07:12.990Z,65.63
2022-12-19T10:10:11.531Z,65.86
2022-12-19T10:12:45.571Z,65.70
2022-12-19T10:15:00.193Z,65.08
2022-12-19T10:17:34.041Z,65.65
2022-12-19T10:20:22.467Z,65.11
2022-12-19T10:22:58.584Z,65.42
2022-12-19T10:25:38.727Z,65.35
2022-12-19T10:28:11.555Z,64.59
2022-12-19T10:31:21.999Z,64.85
2022-12-19T10:34:02.658Z,64.42
2022-12-19T10:37:12.533Z,64.86
2022-12-19T10:39:31.524Z,64.78
2022-12-19T10:42:09.595Z,64.01
2022-12-19T10:44:39.850Z,64.67
2022-12-19T10:47:15.099Z,64.36
2022-12-19T10:49:42.101Z,64.24
2022-12-19T10:52:11.174Z,64.11
2022-12-19T10:54:37.797Z,63.80
2022-12-19T10:57:22.464Z,63.30
2022-12-19T11:00:20.457Z,63.40
2022-12-19T11:02:51.853Z,62.84
2022-12-19T11:05:26.377Z,62.63
2022-12-19T11:08:20.966Z,62.27
2022-12-19T11:11:40.408Z,62.00
2022-12-19T11:18:13.231Z,62.52
2022-12-19T11:21:21.368Z,62.69
2022-12-19T11:29:16.460Z,62.37
2022-12-19T11:29:33.186Z,62.50
2022-12-19T11:29:37.682Z,62.46
2022-12-19T11:30:45.502Z,62.15
2022-12-19T11:34:06.951Z,62.99
2022-12-19T11:36:43.720Z,62.88
2022-12-19T11:39:26.215Z,62.81
2022-12-19T11:42:14.503Z,62.29
2022-12-19T11:44:56.684Z,62.93
2022-12-19T11:47:38.439Z,62.73
2022-12-19T11:50:12.502Z,63.86
2022-12-19T11:53:11.486Z,63.48
2022-12-19T11:55:51.255Z,64.15
2022-12-19T11:58:17.953Z,62.92
2022-12-19T12:00:58.463Z,63.43
2022-12-19T12:03:34.426Z,62.32
2022-12-19T12:06:12.577Z,61.86
2022-12-19T12:10:30.289Z,62.12
2022-12-19T12:18:26.816Z,61.73
2022-12-19T12:26:25.621Z,61.52
2022-12-19T12:30:59.852Z,61.79
2022-12-19T12:31:11.836Z,61.96
2022-12-19T12:31:45.110Z,62.13
2022-12-19T12:32:01.909Z,61.72
2022-12-19T12:36:00.034Z,62.81
2022-12-19T12:38:12.145Z,62.61
2022-12-19T12:40:06.363Z,63.13
2022-12-19T12:42:51.580Z,62.64
2022-12-19T12:45:36.403Z,62.86
2022-12-19T12:48:03.159Z,62.48
2022-12-19T12:50:32.946Z,63.36
2022-12-19T12:53:03.150Z,62.57
2022-12-19T12:55:40.295Z,63.32
2022-12-19T12:58:42.311Z,62.64
2022-12-19T13:01:12.134Z,62.28
2022-12-19T13:03:42.189Z,62.44
2022-12-19T13:06:33.209Z,62.26
2022-12-19T13:09:35.543Z,62.70
2022-12-19T13:12:39.975Z,62.52
2022-12-19T13:15:25.386Z,62.06
2022-12-19T13:18:01.196Z,61.76
2022-12-19T13:20:29.999Z,62.30
2022-12-19T13:23:05.395Z,61.47
2022-12-19T13:25:35.672Z,61.30
2022-12-19T13:28:02.200Z,61.70
2022-12-19T13:30:31.031Z,61.34
2022-12-19T13:33:00.738Z,61.40
2022-12-19T13:36:27.795Z,61.71
2022-12-19T13:40:02.346Z,61.52
2022-12-19T13:41:45.064Z,62.30
2022-12-19T13:44:12.293Z,61.66
2022-12-19T13:46:43.120Z,62.18
2022-12-19T13:49:15.299Z,62.77
2022-12-19T13:52:02.962Z,62.13
2022-12-19T13:54:44.820Z,62.33
2022-12-19T13:57:26.570Z,62.30
2022-12-19T14:00:00.206Z,61.94
2022-12-19T14:02:32.841Z,62.03
2022-12-19T14:05:32.879Z,61.64
2022-12-19T14:08:22.478Z,62.15
2022-12-19T14:11:41.733Z,61.68
2022-12-19T14:14:10.364Z,61.99
2022-12-19T14:16:44.385Z,62.49
2022-12-19T14:19:22.910Z,61.68
2022-12-19T14:22:03.583Z,62.24
2022-12-19T14:24:36.263Z,61.46
2022-12-19T14:28:25.748Z,61.62
2022-12-19T14:30:30.772Z,61.58
2022-12-19T14:33:43.625Z,61.48
2022-12-19T14:36:10.247Z,61.42
2022-12-19T14:39:23.171Z,61.68
2022-12-19T14:42:02.867Z,61.38
2022-12-19T14:54:02.163Z,61.27
2022-12-19T14:54:06.894Z,61.40
2022-12-19T14:54:32.218Z,61.15
2022-12-19T14:54:50.654Z,61.67
2022-12-19T14:59:02.168Z,61.72
2022-12-19T15:01:39.632Z,61.04
2022-12-19T15:04:51.084Z,60.86
2022-12-19T15:07:12.306Z,61.49
2022-12-19T15:11:07.709Z,61.54
2022-12-19T15:14:51.618Z,61.16
2022-12-19T15:16:04.598Z,61.16
2022-12-19T15:18:34.501Z,60.80
2022-12-19T15:21:06.208Z,60.13
2022-12-19T15:23:32.957Z,60.46
2022-12-19T15:26:07.378Z,60.23
2022-12-19T15:28:42.658Z,60.24
2022-12-19T15:31:16.861Z,60.46
2022-12-19T15:34:00.201Z,59.84
2022-12-19T15:36:30.060Z,60.67
2022-12-19T15:38:56.734Z,60.62
2022-12-19T15:41:24.714Z,60.63
2022-12-19T15:44:03.573Z,60.44
2022-12-19T15:46:32.366Z,59.97
2022-12-19T15:48:59.408Z,60.02
2022-12-19T15:51:26.027Z,60.02
2022-12-19T15:53:52.751Z,60.32
2022-12-19T15:56:30.689Z,60.85
2022-12-19T15:59:00.733Z,60.76
2022-12-19T16:01:28.324Z,60.38
2022-12-19T16:03:57.179Z,60.68
2022-12-19T16:06:24.024Z,60.75
2022-12-19T16:08:50.851Z,60.64
2022-12-19T16:11:23.501Z,60.43
2022-12-19T16:13:57.025Z,60.63
2022-12-19T16:16:23.661Z,60.44
2022-12-19T16:18:50.327Z,60.85
2022-12-19T16:21:27.455Z,60.16
2022-12-19T16:23:58.182Z,60.03
2022-12-19T16:26:37.697Z,60.53
2022-12-19T16:29:06.536Z,60.56
2022-12-19T16:31:33.129Z,60.35
2022-12-19T16:34:00.664Z,59.63
2022-12-19T16:36:27.280Z,60.18
2022-12-19T16:38:53.898Z,59.88
2022-12-19T16:41:25.090Z,59.93
2022-12-19T16:43:52.546Z,59.89
2022-12-19T16:46:22.440Z,60.57
2022-12-19T16:48:49.841Z,60.84
2022-12-19T16:51:25.226Z,60.38
2022-12-19T16:53:54.522Z,60.45
2022-12-19T16:56:27.579Z,59.96
2022-12-19T16:58:56.447Z,60.45
2022-12-19T17:01:23.115Z,60.11
2022-12-19T17:03:49.872Z,60.21
2022-12-19T17:06:20.406Z,60.23
2022-12-19T17:08:46.970Z,60.59
2022-12-19T17:11:20.938Z,61.11
2022-12-19T17:14:03.879Z,60.69
2022-12-19T17:16:31.250Z,60.67
2022-12-19T17:18:58.763Z,60.15
2022-12-19T17:21:25.504Z,60.42
2022-12-19T17:23:52.259Z,60.29
2022-12-19T17:26:18.876Z,60.66
2022-12-19T17:28:49.064Z,60.08
2022-12-19T17:31:25.951Z,60.58
2022-12-19T17:33:55.548Z,60.35
2022-12-19T17:36:32.618Z,60.38
2022-12-19T17:39:01.563Z,65.79
2022-12-19T17:41:28.159Z,63.99
2022-12-19T17:43:55.053Z,62.33
2022-12-19T17:46:23.702Z,60.82
2022-12-19T17:48:53.034Z,61.05
2022-12-19T17:51:21.856Z,60.78
2022-12-19T17:53:49.559Z,61.69
2022-12-19T17:56:18.051Z,61.32
2022-12-19T17:58:44.619Z,61.77
2022-12-19T18:01:24.497Z,61.28
2022-12-19T18:03:53.712Z,60.83
2022-12-19T18:06:21.011Z,60.72
2022-12-19T18:08:47.818Z,61.22
2022-12-19T18:11:23.661Z,61.66
2022-12-19T18:13:50.710Z,61.78
2022-12-19T18:16:20.854Z,61.09
2022-12-19T18:18:47.747Z,61.86
2022-12-19T18:21:17.888Z,60.95
2022-12-19T18:23:44.921Z,61.02
2022-12-19T18:26:11.933Z,61.02
2022-12-19T18:28:39.635Z,61.03
2022-12-19T18:31:25.611Z,61.20
2022-12-19T18:33:54.674Z,62.12
2022-12-19T18:36:27.476Z,62.00
2022-12-19T18:38:55.799Z,61.53
2022-12-19T18:41:22.987Z,61.67
2022-12-19T18:43:49.675Z,61.69
2022-12-19T18:46:24.970Z,62.33
2022-12-19T18:48:51.649Z,61.95
2022-12-19T18:51:21.203Z,62.33
2022-12-19T18:53:49.020Z,62.41
2022-12-19T18:56:16.016Z,62.78
2022-12-19T18:58:42.773Z,62.70
2022-12-19T19:01:16.169Z,62.63
2022-12-19T19:03:50.037Z,63.11
2022-12-19T19:06:22.560Z,62.90
2022-12-19T19:08:50.419Z,62.93
2022-12-19T19:11:17.482Z,63.50
2022-12-19T19:13:44.132Z,63.65
2022-12-19T19:16:17.762Z,63.85
2022-12-19T19:18:55.578Z,63.75
2022-12-19T19:21:26.478Z,63.85
2022-12-19T19:23:58.872Z,64.16
2022-12-19T19:26:25.814Z,64.71
2022-12-19T19:28:53.002Z,64.20
2022-12-19T19:31:23.619Z,64.99
2022-12-19T19:33:56.476Z,64.69
2022-12-19T19:36:28.061Z,64.76
2022-12-19T19:38:55.977Z,64.94
2022-12-19T19:41:29.369Z,65.16
2022-12-19T19:43:57.295Z,64.35
2022-12-19T19:46:23.937Z,65.21
2022-12-19T19:48:50.561Z,65.18
2022-12-19T19:51:17.670Z,65.09
2022-12-19T19:53:44.606Z,65.93
2022-12-19T19:56:11.273Z,65.31
2022-12-19T19:58:37.956Z,65.39
2022-12-19T20:01:12.941Z,65.07
2022-12-19T20:03:41.949Z,65.03
2022-12-19T20:06:10.338Z,65.65
2022-12-19T20:08:40.101Z,65.81
2022-12-19T20:11:09.215Z,65.94
2022-12-19T20:13:36.161Z,65.18
2022-12-19T20:16:07.572Z,65.90
2022-12-19T20:18:35.386Z,65.84
2022-12-19T20:21:02.237Z,65.88
2022-12-19T20:23:31.363Z,66.25
2022-12-19T20:26:02.522Z,66.04
2022-12-19T20:28:30.202Z,65.86
2022-12-19T20:30:57.943Z,66.27
2022-12-19T20:33:24.541Z,66.71
2022-12-19T20:35:53.240Z,66.38
2022-12-19T20:38:19.942Z,66.58
2022-12-19T20:40:52.301Z,65.93
2022-12-19T20:43:18.998Z,66.59
2022-12-19T20:45:45.603Z,66.40
2022-12-19T20:48:12.149Z,67.10
2022-12-19T20:50:43.160Z,66.25
2022-12-19T20:53:10.190Z,66.82
2022-12-19T20:55:36.761Z,66.48
2022-12-19T20:58:03.457Z,66.21
2022-12-19T21:00:30.040Z,66.24
2022-12-19T21:05:43.485Z,66.94
2022-12-19T21:08:10.140Z,66.71
2022-12-19T21:10:36.889Z,66.39
2022-12-19T21:13:03.529Z,67.37
2022-12-19T21:15:31.094Z,67.30
2022-12-19T21:17:58.081Z,66.50
2022-12-19T21:20:28.226Z,67.06
2022-12-19T21:22:59.200Z,67.23
2022-12-19T21:25:27.281Z,67.31
2022-12-19T21:27:53.935Z,68.23
2022-12-19T21:30:20.608Z,67.79
2022-12-19T21:32:47.426Z,67.21
2022-12-19T21:35:14.085Z,67.64
2022-12-19T21:37:43.640Z,67.86
2022-12-19T21:40:10.927Z,67.42
2022-12-19T21:42:37.579Z,67.87
2022-12-19T21:45:04.598Z,68.26
2022-12-19T21:47:31.127Z,68.34
2022-12-19T21:49:57.758Z,68.00
2022-12-19T21:52:24.410Z,68.57
2022-12-19T21:54:51.068Z,68.53
2022-12-19T21:57:17.659Z,68.48
2022-12-19T21:59:44.814Z,68.64
2022-12-19T22:02:11.584Z,68.88
2022-12-19T22:04:38.535Z,69.20
2022-12-19T22:07:05.675Z,69.22
2022-12-19T22:09:32.476Z,69.17
2022-12-19T22:11:59.164Z,69.49
2022-12-19T22:14:25.975Z,69.46
2022-12-19T22:16:52.870Z,69.75
2022-12-19T22:19:19.618Z,69.77
2022-12-19T22:21:47.169Z,70.45
2022-12-19T22:24:16.243Z,69.70
2022-12-19T22:26:43.637Z,70.60
2022-12-19T22:29:13.870Z,70.21
2022-12-19T22:31:40.849Z,70.25
2022-12-19T22:34:10.890Z,71.48
2022-12-19T22:36:38.990Z,71.06
2022-12-19T22:39:08.651Z,70.99
2022-12-19T22:41:36.076Z,70.95
2022-12-19T22:44:03.008Z,71.36
2022-12-19T22:46:35.621Z,71.43
2022-12-19T22:49:05.149Z,70.82
2022-12-19T22:51:34.150Z,71.24
2022-12-19T22:54:02.018Z,71.63
2022-12-19T22:56:30.390Z,71.47
2022-12-19T22:59:00.521Z,71.55
2022-12-19T23:01:29.853Z,72.13
2022-12-19T23:03:58.643Z,71.42
2022-12-19T23:06:28.002Z,72.19
2022-12-19T23:08:55.226Z,71.36
2022-12-19T23:11:25.075Z,71.91
2022-12-19T23:13:52.002Z,72.52
2022-12-19T23:16:19.003Z,72.74
2022-12-19T23:18:45.789Z,72.10
2022-12-19T23:21:15.698Z,72.62
2022-12-19T23:23:43.558Z,72.58
2022-12-19T23:26:15.882Z,73.28
2022-12-19T23:28:44.993Z,73.10
2022-12-19T23:31:13.562Z,73.12
2022-12-19T23:33:40.263Z,73.14
2022-12-19T23:36:07.309Z,74.25
2022-12-19T23:38:34.436Z,73.78
2022-12-19T23:41:06.631Z,74.05
2022-12-19T23:43:35.173Z,74.31
2022-12-19T23:46:10.786Z,74.30
2022-12-19T23:48:37.555Z,74.12
2022-12-19T23:51:06.794Z,74.65
2022-12-19T23:53:33.993Z,73.93
2022-12-19T23:56:06.676Z,74.25
2022-12-19T23:58:33.725Z,73.82
